sensor_id;sensor_type;location;lat;lon;timestamp;P1;durP1;ratioP1;P2;durP2;ratioP2
801;SDS011;383;48.766;9.270;2022-11-15T00:00:10;19.17;;;10.80;;
801;SDS011;383;48.766;9.270;2022-11-15T00:02:37;23.13;;;10.95;;
801;SDS011;383;48.766;9.270;2022-11-15T00:05:05;24.05;;;11.70;;
801;SDS011;383;48.766;9.270;2022-11-15T00:07:32;24.02;;;12.10;;
801;SDS011;383;48.766;9.270;2022-11-15T00:09:59;19.73;;;11.05;;
801;SDS011;383;48.766;9.270;2022-11-15T00:12:26;20.13;;;10.45;;
801;SDS011;383;48.766;9.270;2022-11-15T00:14:53;22.80;;;12.55;;
801;SDS011;383;48.766;9.270;2022-11-15T00:17:21;29.42;;;13.52;;
801;SDS011;383;48.766;9.270;2022-11-15T00:19:48;23.73;;;12.00;;
801;SDS011;383;48.766;9.270;2022-11-15T00:22:15;31.33;;;14.15;;
801;SDS011;383;48.766;9.270;2022-11-15T00:24:42;31.42;;;13.75;;
801;SDS011;383;48.766;9.270;2022-11-15T00:27:08;26.50;;;13.93;;
801;SDS011;383;48.766;9.270;2022-11-15T00:29:35;24.13;;;12.07;;
801;SDS011;383;48.766;9.270;2022-11-15T00:32:03;22.73;;;12.20;;
801;SDS011;383;48.766;9.270;2022-11-15T00:34:32;20.58;;;10.65;;
801;SDS011;383;48.766;9.270;2022-11-15T00:36:58;26.48;;;10.82;;
801;SDS011;383;48.766;9.270;2022-11-15T00:39:25;26.90;;;12.32;;
801;SDS011;383;48.766;9.270;2022-11-15T00:41:52;27.10;;;11.68;;
801;SDS011;383;48.766;9.270;2022-11-15T00:44:19;23.40;;;12.35;;
801;SDS011;383;48.766;9.270;2022-11-15T00:46:46;23.30;;;12.05;;
801;SDS011;383;48.766;9.270;2022-11-15T00:49:12;18.33;;;10.82;;
801;SDS011;383;48.766;9.270;2022-11-15T00:51:40;19.63;;;12.07;;
801;SDS011;383;48.766;9.270;2022-11-15T00:54:07;19.27;;;10.57;;
801;SDS011;383;48.766;9.270;2022-11-15T00:56:34;17.48;;;10.73;;
801;SDS011;383;48.766;9.270;2022-11-15T00:59:01;26.98;;;13.20;;
801;SDS011;383;48.766;9.270;2022-11-15T01:01:27;23.80;;;12.38;;
801;SDS011;383;48.766;9.270;2022-11-15T01:03:54;23.95;;;9.35;;
801;SDS011;383;48.766;9.270;2022-11-15T01:06:24;18.45;;;11.00;;
801;SDS011;383;48.766;9.270;2022-11-15T01:08:52;16.38;;;9.68;;
801;SDS011;383;48.766;9.270;2022-11-15T01:11:19;14.20;;;8.95;;
801;SDS011;383;48.766;9.270;2022-11-15T01:13:46;24.27;;;10.15;;
801;SDS011;383;48.766;9.270;2022-11-15T01:16:13;16.48;;;9.65;;
801;SDS011;383;48.766;9.270;2022-11-15T01:18:43;22.98;;;10.50;;
801;SDS011;383;48.766;9.270;2022-11-15T01:21:12;21.20;;;10.70;;
801;SDS011;383;48.766;9.270;2022-11-15T01:23:40;19.88;;;9.05;;
801;SDS011;383;48.766;9.270;2022-11-15T01:26:09;18.13;;;10.70;;
801;SDS011;383;48.766;9.270;2022-11-15T01:28:38;17.67;;;8.55;;
801;SDS011;383;48.766;9.270;2022-11-15T01:31:12;18.60;;;9.70;;
801;SDS011;383;48.766;9.270;2022-11-15T01:33:40;15.93;;;8.43;;
801;SDS011;383;48.766;9.270;2022-11-15T01:36:08;17.58;;;9.40;;
801;SDS011;383;48.766;9.270;2022-11-15T01:38:37;17.25;;;9.10;;
801;SDS011;383;48.766;9.270;2022-11-15T01:41:04;13.00;;;8.15;;
801;SDS011;383;48.766;9.270;2022-11-15T01:43:33;15.82;;;8.73;;
801;SDS011;383;48.766;9.270;2022-11-15T01:46:02;18.27;;;9.48;;
801;SDS011;383;48.766;9.270;2022-11-15T01:48:33;20.05;;;9.40;;
801;SDS011;383;48.766;9.270;2022-11-15T01:51:04;17.98;;;8.32;;
801;SDS011;383;48.766;9.270;2022-11-15T01:53:35;17.10;;;9.77;;
801;SDS011;383;48.766;9.270;2022-11-15T01:56:08;14.40;;;7.90;;
801;SDS011;383;48.766;9.270;2022-11-15T01:58:39;14.82;;;8.05;;
801;SDS011;383;48.766;9.270;2022-11-15T02:01:11;16.58;;;8.52;;
801;SDS011;383;48.766;9.270;2022-11-15T02:03:39;15.45;;;7.82;;
801;SDS011;383;48.766;9.270;2022-11-15T02:06:11;9.98;;;7.47;;
801;SDS011;383;48.766;9.270;2022-11-15T02:08:38;17.83;;;9.05;;
801;SDS011;383;48.766;9.270;2022-11-15T02:11:07;16.33;;;8.63;;
801;SDS011;383;48.766;9.270;2022-11-15T02:13:34;11.77;;;6.65;;
801;SDS011;383;48.766;9.270;2022-11-15T02:16:06;13.40;;;7.55;;
801;SDS011;383;48.766;9.270;2022-11-15T02:18:37;15.27;;;7.30;;
801;SDS011;383;48.766;9.270;2022-11-15T02:21:11;15.18;;;7.45;;
801;SDS011;383;48.766;9.270;2022-11-15T02:23:53;14.85;;;8.15;;
801;SDS011;383;48.766;9.270;2022-11-15T02:26:48;16.08;;;7.80;;
801;SDS011;383;48.766;9.270;2022-11-15T02:29:51;12.63;;;7.10;;
801;SDS011;383;48.766;9.270;2022-11-15T02:32:33;20.10;;;7.25;;
801;SDS011;383;48.766;9.270;2022-11-15T02:35:06;13.30;;;7.50;;
801;SDS011;383;48.766;9.270;2022-11-15T02:37:43;11.48;;;7.07;;
801;SDS011;383;48.766;9.270;2022-11-15T02:40:17;14.15;;;6.95;;
801;SDS011;383;48.766;9.270;2022-11-15T02:42:54;19.33;;;7.35;;
801;SDS011;383;48.766;9.270;2022-11-15T02:45:44;13.90;;;6.70;;
801;SDS011;383;48.766;9.270;2022-11-15T02:48:17;12.88;;;6.70;;
801;SDS011;383;48.766;9.270;2022-11-15T02:50:46;16.58;;;8.27;;
801;SDS011;383;48.766;9.270;2022-11-15T02:53:14;14.82;;;6.93;;
801;SDS011;383;48.766;9.270;2022-11-15T02:55:41;11.82;;;6.60;;
801;SDS011;383;48.766;9.270;2022-11-15T02:58:20;10.05;;;6.18;;
801;SDS011;383;48.766;9.270;2022-11-15T03:01:03;12.38;;;6.78;;
801;SDS011;383;48.766;9.270;2022-11-15T03:03:41;8.95;;;5.68;;
801;SDS011;383;48.766;9.270;2022-11-15T03:06:19;14.50;;;6.47;;
801;SDS011;383;48.766;9.270;2022-11-15T03:08:55;12.68;;;5.38;;
801;SDS011;383;48.766;9.270;2022-11-15T03:11:29;11.77;;;5.47;;
801;SDS011;383;48.766;9.270;2022-11-15T03:14:00;10.60;;;5.70;;
801;SDS011;383;48.766;9.270;2022-11-15T03:16:34;10.43;;;5.97;;
801;SDS011;383;48.766;9.270;2022-11-15T03:19:05;7.28;;;4.72;;
801;SDS011;383;48.766;9.270;2022-11-15T03:21:40;10.07;;;5.47;;
801;SDS011;383;48.766;9.270;2022-11-15T03:24:07;11.57;;;6.30;;
801;SDS011;383;48.766;9.270;2022-11-15T03:26:35;13.00;;;5.57;;
801;SDS011;383;48.766;9.270;2022-11-15T03:29:08;10.20;;;5.00;;
801;SDS011;383;48.766;9.270;2022-11-15T03:31:41;12.23;;;5.75;;
801;SDS011;383;48.766;9.270;2022-11-15T03:34:17;8.85;;;5.20;;
801;SDS011;383;48.766;9.270;2022-11-15T03:36:49;11.02;;;5.82;;
801;SDS011;383;48.766;9.270;2022-11-15T03:39:17;10.02;;;5.20;;
801;SDS011;383;48.766;9.270;2022-11-15T03:41:47;14.35;;;6.65;;
801;SDS011;383;48.766;9.270;2022-11-15T03:44:19;14.23;;;6.78;;
801;SDS011;383;48.766;9.270;2022-11-15T03:46:54;11.65;;;6.90;;
801;SDS011;383;48.766;9.270;2022-11-15T03:49:27;20.15;;;9.90;;
801;SDS011;383;48.766;9.270;2022-11-15T03:51:57;16.60;;;8.65;;
801;SDS011;383;48.766;9.270;2022-11-15T03:54:25;21.58;;;12.00;;
801;SDS011;383;48.766;9.270;2022-11-15T03:56:54;18.55;;;9.43;;
801;SDS011;383;48.766;9.270;2022-11-15T03:59:20;25.88;;;13.23;;
801;SDS011;383;48.766;9.270;2022-11-15T04:01:47;24.55;;;12.15;;
801;SDS011;383;48.766;9.270;2022-11-15T04:04:14;20.25;;;10.88;;
801;SDS011;383;48.766;9.270;2022-11-15T04:06:42;21.23;;;10.88;;
801;SDS011;383;48.766;9.270;2022-11-15T04:09:09;16.45;;;8.85;;
801;SDS011;383;48.766;9.270;2022-11-15T04:11:36;15.27;;;9.82;;
801;SDS011;383;48.766;9.270;2022-11-15T04:14:02;26.13;;;9.32;;
801;SDS011;383;48.766;9.270;2022-11-15T04:16:30;26.50;;;11.20;;
801;SDS011;383;48.766;9.270;2022-11-15T04:18:56;19.85;;;10.98;;
801;SDS011;383;48.766;9.270;2022-11-15T04:21:42;18.55;;;10.50;;
801;SDS011;383;48.766;9.270;2022-11-15T04:24:26;22.13;;;9.80;;
801;SDS011;383;48.766;9.270;2022-11-15T04:26:53;20.23;;;10.40;;
801;SDS011;383;48.766;9.270;2022-11-15T04:29:19;18.83;;;11.13;;
801;SDS011;383;48.766;9.270;2022-11-15T04:32:05;20.23;;;10.13;;
801;SDS011;383;48.766;9.270;2022-11-15T04:34:32;17.42;;;9.70;;
801;SDS011;383;48.766;9.270;2022-11-15T04:37:01;18.48;;;10.23;;
801;SDS011;383;48.766;9.270;2022-11-15T04:39:41;27.92;;;10.05;;
801;SDS011;383;48.766;9.270;2022-11-15T04:42:09;21.95;;;10.43;;
801;SDS011;383;48.766;9.270;2022-11-15T04:44:36;15.15;;;9.10;;
801;SDS011;383;48.766;9.270;2022-11-15T04:47:05;14.50;;;9.27;;
801;SDS011;383;48.766;9.270;2022-11-15T04:49:32;18.85;;;10.00;;
801;SDS011;383;48.766;9.270;2022-11-15T04:51:58;16.52;;;9.38;;
801;SDS011;383;48.766;9.270;2022-11-15T04:54:27;15.77;;;8.57;;
801;SDS011;383;48.766;9.270;2022-11-15T04:56:53;20.10;;;9.93;;
801;SDS011;383;48.766;9.270;2022-11-15T04:59:20;17.75;;;9.73;;
801;SDS011;383;48.766;9.270;2022-11-15T05:01:47;23.45;;;10.23;;
801;SDS011;383;48.766;9.270;2022-11-15T05:04:14;15.70;;;9.82;;
801;SDS011;383;48.766;9.270;2022-11-15T05:06:46;20.70;;;9.68;;
801;SDS011;383;48.766;9.270;2022-11-15T05:09:18;16.20;;;9.00;;
801;SDS011;383;48.766;9.270;2022-11-15T05:11:46;18.13;;;9.57;;
801;SDS011;383;48.766;9.270;2022-11-15T05:14:13;19.67;;;9.63;;
801;SDS011;383;48.766;9.270;2022-11-15T05:16:40;21.60;;;9.20;;
801;SDS011;383;48.766;9.270;2022-11-15T05:19:08;16.17;;;10.00;;
801;SDS011;383;48.766;9.270;2022-11-15T05:21:35;13.80;;;8.38;;
801;SDS011;383;48.766;9.270;2022-11-15T05:24:03;14.32;;;8.65;;
801;SDS011;383;48.766;9.270;2022-11-15T05:26:30;16.38;;;9.95;;
801;SDS011;383;48.766;9.270;2022-11-15T05:28:58;16.13;;;9.18;;
801;SDS011;383;48.766;9.270;2022-11-15T05:31:26;12.23;;;7.50;;
801;SDS011;383;48.766;9.270;2022-11-15T05:33:53;16.92;;;8.02;;
801;SDS011;383;48.766;9.270;2022-11-15T05:36:22;21.75;;;8.93;;
801;SDS011;383;48.766;9.270;2022-11-15T05:38:55;12.77;;;7.65;;
801;SDS011;383;48.766;9.270;2022-11-15T05:41:24;13.50;;;8.00;;
801;SDS011;383;48.766;9.270;2022-11-15T05:43:55;13.00;;;7.28;;
801;SDS011;383;48.766;9.270;2022-11-15T05:46:23;12.02;;;8.32;;
801;SDS011;383;48.766;9.270;2022-11-15T05:48:50;14.80;;;8.75;;
801;SDS011;383;48.766;9.270;2022-11-15T05:51:22;13.75;;;7.60;;
801;SDS011;383;48.766;9.270;2022-11-15T05:53:49;9.93;;;6.78;;
801;SDS011;383;48.766;9.270;2022-11-15T05:56:18;13.23;;;7.75;;
801;SDS011;383;48.766;9.270;2022-11-15T05:58:45;13.55;;;7.70;;
801;SDS011;383;48.766;9.270;2022-11-15T06:01:12;12.05;;;7.85;;
801;SDS011;383;48.766;9.270;2022-11-15T06:03:40;13.77;;;8.45;;
801;SDS011;383;48.766;9.270;2022-11-15T06:06:07;19.85;;;8.73;;
801;SDS011;383;48.766;9.270;2022-11-15T06:08:34;13.43;;;8.85;;
801;SDS011;383;48.766;9.270;2022-11-15T06:11:04;16.88;;;8.73;;
801;SDS011;383;48.766;9.270;2022-11-15T06:13:31;18.63;;;9.85;;
801;SDS011;383;48.766;9.270;2022-11-15T06:15:58;21.92;;;9.07;;
801;SDS011;383;48.766;9.270;2022-11-15T06:18:25;15.40;;;9.68;;
801;SDS011;383;48.766;9.270;2022-11-15T06:20:57;15.13;;;9.32;;
801;SDS011;383;48.766;9.270;2022-11-15T06:23:25;17.52;;;9.93;;
801;SDS011;383;48.766;9.270;2022-11-15T06:25:51;15.93;;;8.70;;
801;SDS011;383;48.766;9.270;2022-11-15T06:28:18;24.98;;;9.68;;
801;SDS011;383;48.766;9.270;2022-11-15T06:30:49;14.27;;;8.63;;
801;SDS011;383;48.766;9.270;2022-11-15T06:33:16;13.35;;;9.02;;
801;SDS011;383;48.766;9.270;2022-11-15T06:35:42;17.67;;;9.15;;
801;SDS011;383;48.766;9.270;2022-11-15T06:38:10;16.02;;;9.35;;
801;SDS011;383;48.766;9.270;2022-11-15T06:40:38;18.20;;;9.07;;
801;SDS011;383;48.766;9.270;2022-11-15T06:43:05;14.63;;;8.98;;
801;SDS011;383;48.766;9.270;2022-11-15T06:45:32;18.40;;;9.43;;
801;SDS011;383;48.766;9.270;2022-11-15T06:47:59;18.83;;;8.50;;
801;SDS011;383;48.766;9.270;2022-11-15T06:50:26;14.45;;;6.85;;
801;SDS011;383;48.766;9.270;2022-11-15T06:52:53;12.32;;;7.25;;
801;SDS011;383;48.766;9.270;2022-11-15T06:55:21;16.10;;;7.90;;
801;SDS011;383;48.766;9.270;2022-11-15T06:57:48;14.55;;;8.35;;
801;SDS011;383;48.766;9.270;2022-11-15T07:00:16;19.05;;;8.45;;
801;SDS011;383;48.766;9.270;2022-11-15T07:02:44;23.00;;;9.57;;
801;SDS011;383;48.766;9.270;2022-11-15T07:05:11;16.67;;;8.75;;
801;SDS011;383;48.766;9.270;2022-11-15T07:07:38;22.65;;;9.45;;
801;SDS011;383;48.766;9.270;2022-11-15T07:10:05;10.73;;;7.10;;
801;SDS011;383;48.766;9.270;2022-11-15T07:12:34;17.23;;;7.80;;
801;SDS011;383;48.766;9.270;2022-11-15T07:15:03;18.55;;;9.05;;
801;SDS011;383;48.766;9.270;2022-11-15T07:17:30;19.35;;;9.48;;
801;SDS011;383;48.766;9.270;2022-11-15T07:19:57;18.88;;;9.50;;
801;SDS011;383;48.766;9.270;2022-11-15T07:22:24;19.40;;;9.38;;
801;SDS011;383;48.766;9.270;2022-11-15T07:24:51;12.52;;;8.23;;
801;SDS011;383;48.766;9.270;2022-11-15T07:27:18;22.27;;;9.50;;
801;SDS011;383;48.766;9.270;2022-11-15T07:29:48;14.57;;;9.05;;
801;SDS011;383;48.766;9.270;2022-11-15T07:32:14;16.33;;;9.20;;
801;SDS011;383;48.766;9.270;2022-11-15T07:34:41;18.42;;;8.60;;
801;SDS011;383;48.766;9.270;2022-11-15T07:37:08;17.83;;;8.35;;
801;SDS011;383;48.766;9.270;2022-11-15T07:39:35;14.90;;;8.45;;
801;SDS011;383;48.766;9.270;2022-11-15T07:42:01;16.20;;;7.65;;
801;SDS011;383;48.766;9.270;2022-11-15T07:44:45;14.52;;;9.13;;
801;SDS011;383;48.766;9.270;2022-11-15T07:47:13;13.90;;;8.95;;
801;SDS011;383;48.766;9.270;2022-11-15T07:49:40;18.85;;;9.68;;
801;SDS011;383;48.766;9.270;2022-11-15T07:52:07;25.98;;;10.90;;
801;SDS011;383;48.766;9.270;2022-11-15T07:54:34;26.75;;;10.05;;
801;SDS011;383;48.766;9.270;2022-11-15T07:57:00;19.08;;;9.75;;
801;SDS011;383;48.766;9.270;2022-11-15T07:59:27;19.30;;;10.00;;
801;SDS011;383;48.766;9.270;2022-11-15T08:01:55;17.67;;;8.48;;
801;SDS011;383;48.766;9.270;2022-11-15T08:04:22;20.05;;;8.90;;
801;SDS011;383;48.766;9.270;2022-11-15T08:06:49;20.33;;;9.45;;
801;SDS011;383;48.766;9.270;2022-11-15T08:09:16;13.63;;;7.93;;
801;SDS011;383;48.766;9.270;2022-11-15T08:11:43;21.48;;;9.13;;
801;SDS011;383;48.766;9.270;2022-11-15T08:14:10;16.02;;;8.00;;
801;SDS011;383;48.766;9.270;2022-11-15T08:16:37;14.50;;;6.93;;
801;SDS011;383;48.766;9.270;2022-11-15T08:19:05;14.90;;;7.60;;
801;SDS011;383;48.766;9.270;2022-11-15T08:21:31;14.93;;;8.98;;
801;SDS011;383;48.766;9.270;2022-11-15T08:23:58;13.73;;;7.47;;
801;SDS011;383;48.766;9.270;2022-11-15T08:26:25;14.25;;;8.10;;
801;SDS011;383;48.766;9.270;2022-11-15T08:28:54;19.63;;;7.93;;
801;SDS011;383;48.766;9.270;2022-11-15T08:31:21;14.35;;;6.70;;
801;SDS011;383;48.766;9.270;2022-11-15T08:33:48;11.40;;;6.93;;
801;SDS011;383;48.766;9.270;2022-11-15T08:36:16;11.25;;;6.97;;
801;SDS011;383;48.766;9.270;2022-11-15T08:38:43;10.52;;;6.95;;
801;SDS011;383;48.766;9.270;2022-11-15T08:41:11;12.50;;;6.80;;
801;SDS011;383;48.766;9.270;2022-11-15T08:43:50;9.85;;;6.68;;
801;SDS011;383;48.766;9.270;2022-11-15T08:46:17;9.55;;;6.47;;
801;SDS011;383;48.766;9.270;2022-11-15T08:48:44;13.75;;;6.85;;
801;SDS011;383;48.766;9.270;2022-11-15T08:51:11;11.70;;;6.55;;
801;SDS011;383;48.766;9.270;2022-11-15T08:53:40;12.02;;;6.70;;
801;SDS011;383;48.766;9.270;2022-11-15T08:56:07;12.93;;;6.50;;
801;SDS011;383;48.766;9.270;2022-11-15T08:58:34;13.15;;;6.50;;
801;SDS011;383;48.766;9.270;2022-11-15T09:01:02;15.13;;;6.60;;
801;SDS011;383;48.766;9.270;2022-11-15T09:03:28;11.40;;;7.13;;
801;SDS011;383;48.766;9.270;2022-11-15T09:05:55;12.40;;;7.03;;
801;SDS011;383;48.766;9.270;2022-11-15T09:08:23;17.17;;;7.57;;
801;SDS011;383;48.766;9.270;2022-11-15T09:10:51;14.48;;;8.30;;
801;SDS011;383;48.766;9.270;2022-11-15T09:13:18;20.00;;;8.43;;
801;SDS011;383;48.766;9.270;2022-11-15T09:15:44;19.77;;;8.95;;
801;SDS011;383;48.766;9.270;2022-11-15T09:18:11;18.77;;;9.07;;
801;SDS011;383;48.766;9.270;2022-11-15T09:20:38;19.03;;;8.40;;
801;SDS011;383;48.766;9.270;2022-11-15T09:23:05;18.33;;;8.50;;
801;SDS011;383;48.766;9.270;2022-11-15T09:25:32;12.10;;;8.00;;
801;SDS011;383;48.766;9.270;2022-11-15T09:28:00;13.80;;;7.70;;
801;SDS011;383;48.766;9.270;2022-11-15T09:30:31;13.90;;;7.80;;
801;SDS011;383;48.766;9.270;2022-11-15T09:32:58;16.73;;;7.60;;
801;SDS011;383;48.766;9.270;2022-11-15T09:35:24;16.73;;;7.60;;
801;SDS011;383;48.766;9.270;2022-11-15T09:37:51;11.97;;;6.60;;
801;SDS011;383;48.766;9.270;2022-11-15T09:40:18;13.83;;;7.57;;
801;SDS011;383;48.766;9.270;2022-11-15T09:42:53;11.63;;;6.73;;
801;SDS011;383;48.766;9.270;2022-11-15T09:45:31;12.23;;;6.90;;
801;SDS011;383;48.766;9.270;2022-11-15T09:48:15;20.73;;;7.77;;
801;SDS011;383;48.766;9.270;2022-11-15T09:50:56;10.67;;;7.07;;
801;SDS011;383;48.766;9.270;2022-11-15T09:53:26;15.03;;;7.17;;
801;SDS011;383;48.766;9.270;2022-11-15T09:55:58;11.00;;;6.63;;
801;SDS011;383;48.766;9.270;2022-11-15T09:58:29;16.33;;;8.50;;
801;SDS011;383;48.766;9.270;2022-11-15T10:01:03;14.30;;;7.50;;
801;SDS011;383;48.766;9.270;2022-11-15T10:03:34;14.67;;;7.80;;
801;SDS011;383;48.766;9.270;2022-11-15T10:06:08;13.60;;;6.63;;
801;SDS011;383;48.766;9.270;2022-11-15T10:08:51;16.30;;;7.43;;
801;SDS011;383;48.766;9.270;2022-11-15T10:11:25;13.73;;;6.73;;
801;SDS011;383;48.766;9.270;2022-11-15T10:13:56;13.50;;;6.87;;
801;SDS011;383;48.766;9.270;2022-11-15T10:16:34;11.40;;;6.80;;
801;SDS011;383;48.766;9.270;2022-11-15T10:19:32;10.20;;;6.43;;
801;SDS011;383;48.766;9.270;2022-11-15T10:22:06;8.80;;;5.50;;
801;SDS011;383;48.766;9.270;2022-11-15T10:24:50;9.03;;;5.30;;
801;SDS011;383;48.766;9.270;2022-11-15T10:27:24;9.80;;;4.90;;
801;SDS011;383;48.766;9.270;2022-11-15T10:29:55;7.37;;;5.13;;
801;SDS011;383;48.766;9.270;2022-11-15T10:32:23;17.60;;;6.60;;
801;SDS011;383;48.766;9.270;2022-11-15T10:34:51;14.23;;;6.47;;
801;SDS011;383;48.766;9.270;2022-11-15T10:37:26;12.03;;;6.33;;
801;SDS011;383;48.766;9.270;2022-11-15T10:40:02;9.90;;;5.60;;
801;SDS011;383;48.766;9.270;2022-11-15T10:42:30;12.70;;;5.70;;
801;SDS011;383;48.766;9.270;2022-11-15T10:44:58;9.03;;;4.97;;
801;SDS011;383;48.766;9.270;2022-11-15T10:50:02;8.07;;;4.20;;
801;SDS011;383;48.766;9.270;2022-11-15T10:52:32;8.47;;;4.83;;
801;SDS011;383;48.766;9.270;2022-11-15T10:55:04;8.93;;;4.60;;
801;SDS011;383;48.766;9.270;2022-11-15T10:57:48;11.40;;;5.33;;
801;SDS011;383;48.766;9.270;2022-11-15T11:00:36;8.80;;;4.60;;
801;SDS011;383;48.766;9.270;2022-11-15T11:03:05;9.97;;;5.33;;
801;SDS011;383;48.766;9.270;2022-11-15T11:05:44;6.10;;;4.20;;
801;SDS011;383;48.766;9.270;2022-11-15T11:08:22;6.37;;;4.00;;
801;SDS011;383;48.766;9.270;2022-11-15T11:10:53;8.80;;;3.83;;
801;SDS011;383;48.766;9.270;2022-11-15T11:13:22;9.23;;;4.90;;
801;SDS011;383;48.766;9.270;2022-11-15T11:15:54;5.10;;;3.53;;
801;SDS011;383;48.766;9.270;2022-11-15T11:18:26;7.07;;;3.67;;
801;SDS011;383;48.766;9.270;2022-11-15T11:20:58;7.00;;;3.87;;
801;SDS011;383;48.766;9.270;2022-11-15T11:23:34;7.80;;;3.93;;
801;SDS011;383;48.766;9.270;2022-11-15T11:26:11;5.53;;;3.77;;
801;SDS011;383;48.766;9.270;2022-11-15T11:28:54;5.27;;;3.37;;
801;SDS011;383;48.766;9.270;2022-11-15T11:31:30;7.40;;;3.50;;
801;SDS011;383;48.766;9.270;2022-11-15T11:34:09;4.10;;;3.10;;
801;SDS011;383;48.766;9.270;2022-11-15T11:36:50;7.60;;;3.97;;
801;SDS011;383;48.766;9.270;2022-11-15T11:39:24;9.13;;;4.17;;
801;SDS011;383;48.766;9.270;2022-11-15T11:42:03;6.03;;;4.23;;
801;SDS011;383;48.766;9.270;2022-11-15T11:44:40;4.00;;;2.87;;
801;SDS011;383;48.766;9.270;2022-11-15T11:47:14;4.97;;;3.13;;
801;SDS011;383;48.766;9.270;2022-11-15T11:49:49;3.73;;;2.80;;
801;SDS011;383;48.766;9.270;2022-11-15T11:52:18;4.13;;;3.03;;
801;SDS011;383;48.766;9.270;2022-11-15T11:54:53;6.93;;;3.60;;
801;SDS011;383;48.766;9.270;2022-11-15T11:57:38;8.50;;;3.93;;
801;SDS011;383;48.766;9.270;2022-11-15T12:00:15;10.17;;;4.70;;
801;SDS011;383;48.766;9.270;2022-11-15T12:02:47;11.67;;;5.00;;
801;SDS011;383;48.766;9.270;2022-11-15T12:05:30;18.83;;;4.30;;
801;SDS011;383;48.766;9.270;2022-11-15T12:08:03;6.50;;;4.13;;
801;SDS011;383;48.766;9.270;2022-11-15T12:10:39;8.07;;;4.57;;
801;SDS011;383;48.766;9.270;2022-11-15T12:13:10;6.30;;;4.30;;
801;SDS011;383;48.766;9.270;2022-11-15T12:15:43;9.73;;;3.87;;
801;SDS011;383;48.766;9.270;2022-11-15T12:18:18;8.97;;;4.37;;
801;SDS011;383;48.766;9.270;2022-11-15T12:20:49;6.23;;;3.20;;
801;SDS011;383;48.766;9.270;2022-11-15T12:23:20;12.10;;;6.70;;
801;SDS011;383;48.766;9.270;2022-11-15T12:26:04;16.27;;;6.17;;
801;SDS011;383;48.766;9.270;2022-11-15T12:28:41;10.17;;;4.77;;
801;SDS011;383;48.766;9.270;2022-11-15T12:32:00;14.37;;;8.40;;
801;SDS011;383;48.766;9.270;2022-11-15T12:41:35;6.80;;;4.43;;
801;SDS011;383;48.766;9.270;2022-11-15T12:44:05;6.60;;;4.00;;
801;SDS011;383;48.766;9.270;2022-11-15T12:49:43;5.73;;;3.63;;
801;SDS011;383;48.766;9.270;2022-11-15T12:52:15;6.83;;;4.27;;
801;SDS011;383;48.766;9.270;2022-11-15T12:54:58;9.03;;;4.00;;
801;SDS011;383;48.766;9.270;2022-11-15T12:57:39;9.63;;;4.40;;
801;SDS011;383;48.766;9.270;2022-11-15T13:03:23;7.63;;;3.87;;
801;SDS011;383;48.766;9.270;2022-11-15T13:05:53;9.50;;;3.20;;
801;SDS011;383;48.766;9.270;2022-11-15T13:08:40;12.30;;;4.33;;
801;SDS011;383;48.766;9.270;2022-11-15T13:17:26;8.03;;;4.83;;
801;SDS011;383;48.766;9.270;2022-11-15T13:20:07;10.97;;;5.77;;
801;SDS011;383;48.766;9.270;2022-11-15T13:22:53;12.37;;;6.17;;
801;SDS011;383;48.766;9.270;2022-11-15T13:28:32;15.60;;;6.40;;
801;SDS011;383;48.766;9.270;2022-11-15T13:31:13;14.90;;;6.70;;
801;SDS011;383;48.766;9.270;2022-11-15T13:33:56;13.10;;;5.80;;
801;SDS011;383;48.766;9.270;2022-11-15T13:36:26;9.17;;;5.23;;
801;SDS011;383;48.766;9.270;2022-11-15T13:38:55;12.97;;;5.63;;
801;SDS011;383;48.766;9.270;2022-11-15T13:41:25;12.10;;;5.50;;
801;SDS011;383;48.766;9.270;2022-11-15T13:43:56;14.33;;;6.00;;
801;SDS011;383;48.766;9.270;2022-11-15T13:46:25;11.13;;;5.10;;
801;SDS011;383;48.766;9.270;2022-11-15T13:48:53;9.03;;;5.40;;
801;SDS011;383;48.766;9.270;2022-11-15T13:51:27;13.07;;;5.13;;
801;SDS011;383;48.766;9.270;2022-11-15T13:54:01;24.00;;;5.23;;
801;SDS011;383;48.766;9.270;2022-11-15T13:56:35;9.47;;;5.80;;
801;SDS011;383;48.766;9.270;2022-11-15T13:59:08;6.93;;;4.47;;
801;SDS011;383;48.766;9.270;2022-11-15T14:01:36;10.43;;;5.03;;
801;SDS011;383;48.766;9.270;2022-11-15T14:04:03;10.50;;;5.90;;
801;SDS011;383;48.766;9.270;2022-11-15T14:06:30;13.43;;;5.67;;
801;SDS011;383;48.766;9.270;2022-11-15T14:11:53;6.40;;;3.30;;
801;SDS011;383;48.766;9.270;2022-11-15T14:14:21;10.90;;;3.90;;
801;SDS011;383;48.766;9.270;2022-11-15T14:16:50;10.10;;;4.40;;
801;SDS011;383;48.766;9.270;2022-11-15T14:19:35;8.47;;;4.70;;
801;SDS011;383;48.766;9.270;2022-11-15T14:22:10;7.10;;;4.30;;
801;SDS011;383;48.766;9.270;2022-11-15T14:24:42;8.30;;;3.80;;
801;SDS011;383;48.766;9.270;2022-11-15T14:29:59;6.87;;;4.33;;
801;SDS011;383;48.766;9.270;2022-11-15T14:32:27;13.80;;;9.53;;
801;SDS011;383;48.766;9.270;2022-11-15T14:34:55;14.77;;;6.60;;
801;SDS011;383;48.766;9.270;2022-11-15T14:37:24;11.60;;;7.83;;
801;SDS011;383;48.766;9.270;2022-11-15T14:39:51;14.53;;;7.50;;
801;SDS011;383;48.766;9.270;2022-11-15T14:42:19;13.97;;;7.20;;
801;SDS011;383;48.766;9.270;2022-11-15T14:44:49;18.60;;;7.83;;
801;SDS011;383;48.766;9.270;2022-11-15T14:47:16;9.53;;;6.33;;
801;SDS011;383;48.766;9.270;2022-11-15T14:49:43;10.00;;;5.43;;
801;SDS011;383;48.766;9.270;2022-11-15T14:52:19;13.13;;;6.53;;
801;SDS011;383;48.766;9.270;2022-11-15T14:54:50;12.20;;;6.87;;
801;SDS011;383;48.766;9.270;2022-11-15T14:57:16;10.07;;;5.57;;
801;SDS011;383;48.766;9.270;2022-11-15T14:59:43;10.20;;;6.20;;
801;SDS011;383;48.766;9.270;2022-11-15T15:02:18;10.77;;;5.87;;
801;SDS011;383;48.766;9.270;2022-11-15T15:04:47;9.23;;;5.40;;
801;SDS011;383;48.766;9.270;2022-11-15T15:07:14;10.20;;;6.00;;
801;SDS011;383;48.766;9.270;2022-11-15T15:09:41;10.33;;;6.00;;
801;SDS011;383;48.766;9.270;2022-11-15T15:12:15;11.93;;;6.50;;
801;SDS011;383;48.766;9.270;2022-11-15T15:14:43;13.73;;;6.67;;
801;SDS011;383;48.766;9.270;2022-11-15T15:17:11;11.43;;;6.70;;
801;SDS011;383;48.766;9.270;2022-11-15T15:19:39;8.27;;;5.70;;
801;SDS011;383;48.766;9.270;2022-11-15T15:22:08;9.47;;;5.57;;
801;SDS011;383;48.766;9.270;2022-11-15T15:24:39;15.80;;;6.83;;
801;SDS011;383;48.766;9.270;2022-11-15T15:27:06;10.07;;;5.67;;
801;SDS011;383;48.766;9.270;2022-11-15T15:29:33;9.83;;;5.17;;
801;SDS011;383;48.766;9.270;2022-11-15T15:32:00;15.37;;;7.30;;
801;SDS011;383;48.766;9.270;2022-11-15T15:34:27;10.03;;;5.90;;
801;SDS011;383;48.766;9.270;2022-11-15T15:37:07;11.80;;;6.23;;
801;SDS011;383;48.766;9.270;2022-11-15T15:39:35;16.90;;;8.67;;
801;SDS011;383;48.766;9.270;2022-11-15T15:42:02;15.77;;;6.50;;
801;SDS011;383;48.766;9.270;2022-11-15T15:44:29;25.23;;;8.70;;
801;SDS011;383;48.766;9.270;2022-11-15T15:46:56;28.27;;;8.50;;
801;SDS011;383;48.766;9.270;2022-11-15T15:49:23;14.67;;;8.33;;
801;SDS011;383;48.766;9.270;2022-11-15T15:51:52;14.50;;;7.83;;
801;SDS011;383;48.766;9.270;2022-11-15T15:54:21;15.27;;;8.60;;
801;SDS011;383;48.766;9.270;2022-11-15T15:56:48;13.53;;;7.27;;
801;SDS011;383;48.766;9.270;2022-11-15T15:59:17;20.20;;;8.67;;
801;SDS011;383;48.766;9.270;2022-11-15T16:01:45;17.70;;;8.53;;
801;SDS011;383;48.766;9.270;2022-11-15T16:04:11;13.60;;;8.03;;
801;SDS011;383;48.766;9.270;2022-11-15T16:06:39;16.00;;;8.03;;
801;SDS011;383;48.766;9.270;2022-11-15T16:09:09;18.07;;;10.00;;
801;SDS011;383;48.766;9.270;2022-11-15T16:11:41;19.50;;;8.70;;
801;SDS011;383;48.766;9.270;2022-11-15T16:14:08;16.00;;;8.10;;
801;SDS011;383;48.766;9.270;2022-11-15T16:16:34;22.63;;;9.53;;
801;SDS011;383;48.766;9.270;2022-11-15T16:19:02;18.97;;;9.00;;
801;SDS011;383;48.766;9.270;2022-11-15T16:21:30;15.27;;;8.33;;